createdAt,value
2018-08-21T00:02:04.762Z,0
2018-08-21T00:12:04.836Z,0
2018-08-21T00:22:04.753Z,0
2018-08-21T00:32:04.829Z,0
2018-08-21T00:42:05.118Z,0
2018-08-21T00:52:04.725Z,0
2018-08-21T01:02:04.852Z,0
2018-08-21T01:12:04.779Z,0
2018-08-21T01:22:15.022Z,0
2018-08-21T01:32:56.263Z,0
2018-08-21T01:42:04.685Z,0
2018-08-21T01:52:04.788Z,0
2018-08-21T02:02:04.735Z,0
2018-08-21T02:12:04.759Z,0
2018-08-21T02:22:04.760Z,0
2018-08-21T02:32:04.811Z,0
2018-08-21T02:42:04.785Z,0
2018-08-21T02:52:04.838Z,0
2018-08-21T03:02:04.735Z,0
2018-08-21T03:12:04.792Z,0
2018-08-21T03:22:04.756Z,0
2018-08-21T03:32:04.793Z,0
2018-08-21T03:42:04.767Z,0
2018-08-21T03:52:04.831Z,0
2018-08-21T04:02:04.767Z,0
2018-08-21T04:12:04.810Z,0
2018-08-21T04:22:04.863Z,5
2018-08-21T04:32:04.897Z,10
2018-08-21T04:42:04.750Z,20
2018-08-21T04:52:04.904Z,30
2018-08-21T05:02:04.735Z,40
2018-08-21T05:12:04.786Z,50
2018-08-21T05:22:04.933Z,60
2018-08-21T05:32:04.812Z,70
2018-08-21T05:42:04.834Z,80
2018-08-21T05:52:04.910Z,95
2018-08-21T06:02:04.789Z,110
2018-08-21T06:12:04.748Z,140
2018-08-21T06:22:04.786Z,160
2018-08-21T06:32:04.930Z,175
2018-08-21T06:42:04.789Z,190
2018-08-21T06:52:04.739Z,205
2018-08-21T07:02:04.778Z,215
2018-08-21T07:12:04.757Z,225
2018-08-21T07:22:04.834Z,235
2018-08-21T07:32:04.830Z,230
2018-08-21T07:42:04.863Z,225
2018-08-21T07:52:04.823Z,220
2018-08-21T08:02:04.835Z,225
2018-08-21T08:12:04.757Z,245
2018-08-21T08:22:04.816Z,260
2018-08-21T08:32:04.833Z,265
2018-08-21T08:42:05.069Z,235
2018-08-21T08:52:04.816Z,250
2018-08-21T09:02:04.787Z,270
2018-08-21T09:12:04.852Z,265
2018-08-21T09:22:04.891Z,235
2018-08-21T09:32:04.838Z,245
2018-08-21T09:42:04.842Z,275
2018-08-21T09:52:04.788Z,255
2018-08-21T10:02:04.820Z,260
2018-08-21T10:12:04.879Z,240
2018-08-21T10:22:04.826Z,225
2018-08-21T10:32:04.839Z,240
2018-08-21T10:42:04.862Z,285
2018-08-21T10:52:04.888Z,320
2018-08-21T11:02:04.898Z,315
2018-08-21T11:12:04.908Z,305
2018-08-21T11:22:04.847Z,270
2018-08-21T11:32:04.873Z,275
2018-08-21T11:42:04.905Z,270
2018-08-21T11:52:04.839Z,300
2018-08-21T12:02:04.953Z,205
2018-08-21T12:12:04.871Z,190
2018-08-21T12:22:04.898Z,210
2018-08-21T12:32:05.029Z,190
2018-08-21T12:42:05.277Z,180
2018-08-21T12:52:04.970Z,200
2018-08-21T13:02:04.934Z,225
2018-08-21T13:12:04.961Z,265
2018-08-21T13:22:04.866Z,265
2018-08-21T13:32:04.893Z,250
2018-08-21T13:42:04.888Z,215
2018-08-21T13:52:04.909Z,200
2018-08-21T14:02:04.995Z,195
2018-08-21T14:12:05.057Z,195
2018-08-21T14:22:05.041Z,215
2018-08-21T14:32:05.119Z,200
2018-08-21T14:42:05.059Z,185
2018-08-21T14:52:04.968Z,195
2018-08-21T15:02:04.951Z,185
2018-08-21T15:12:04.995Z,175
2018-08-21T15:22:04.976Z,150
2018-08-21T15:32:05.033Z,135
2018-08-21T15:42:04.979Z,120
2018-08-21T15:52:05.071Z,120
2018-08-21T16:02:05.008Z,125
2018-08-21T16:12:05.035Z,120
2018-08-21T16:22:04.988Z,110
2018-08-21T16:32:04.978Z,95
2018-08-21T16:42:05.047Z,90
2018-08-21T16:52:05.389Z,75
2018-08-21T17:02:05.184Z,65
2018-08-21T17:12:04.947Z,50
2018-08-21T17:22:05.052Z,50
2018-08-21T17:32:04.976Z,40
2018-08-21T17:42:05.018Z,35
2018-08-21T17:52:05.053Z,25
2018-08-21T18:02:05.010Z,20
2018-08-21T18:12:05.088Z,15
2018-08-21T18:22:05.034Z,10
2018-08-21T18:32:05.139Z,5
2018-08-21T18:42:04.999Z,0
2018-08-21T18:52:05.191Z,0
2018-08-21T19:02:05.004Z,0
2018-08-21T19:12:05.021Z,0
2018-08-21T19:22:05.100Z,0
2018-08-21T19:32:05.331Z,0
2018-08-21T19:42:05.028Z,0
2018-08-21T19:52:05.128Z,0
2018-08-21T20:02:05.075Z,0
2018-08-21T20:12:05.126Z,0
2018-08-21T20:22:05.096Z,0
2018-08-21T20:32:05.076Z,0
2018-08-21T20:42:05.010Z,0
2018-08-21T20:52:05.105Z,0
2018-08-21T21:02:04.989Z,0
2018-08-21T21:12:05.095Z,0
2018-08-21T21:22:05.057Z,0
2018-08-21T21:32:05.489Z,0
2018-08-21T21:42:05.138Z,0
2018-08-21T21:52:04.989Z,0
2018-08-21T22:02:05.093Z,0
2018-08-21T22:12:05.123Z,0
2018-08-21T22:22:05.099Z,0
2018-08-21T22:32:05.007Z,0
2018-08-21T22:42:04.998Z,0
2018-08-21T22:52:05.183Z,0
2018-08-21T23:02:05.080Z,0
2018-08-21T23:12:05.000Z,0
2018-08-21T23:22:05.092Z,0
2018-08-21T23:32:05.063Z,0
2018-08-21T23:42:05.010Z,0
2018-08-21T23:52:05.084Z,0
